Time;durP1;ratioP1;P1;durP2;ratioP2;P2;SDS_P1;SDS_P2;PMS_P1;PMS_P2;Temp;Humidity;BMP_temperature;BMP_pressure;BME280_temperature;BME280_humidity;BME280_pressure;Samples;Min_cycle;Max_cycle;Signal;HPM_P1;HPM_P2
2024/02/07 00:00:12;;;;;;;11.73;3.88;;;;;;;10.43;100.00;100202.72;4771666;29;20055;-65
2024/02/07 00:03:01;;;;;;;12.35;3.85;;;;;;;10.44;100.00;100201.66;4773979;30;20051;-65
2024/02/07 00:05:49;;;;;;;12.18;3.88;;;;;;;10.42;100.00;100192.94;4777496;30;20116;-65
2024/02/07 00:08:37;;;;;;;12.23;4.10;;;;;;;10.44;100.00;100198.94;4772454;30;20093;-65
2024/02/07 00:11:25;;;;;;;11.02;4.03;;;;;;;10.43;100.00;100197.28;4771565;30;20048;-65
2024/02/07 00:14:13;;;;;;;14.98;4.53;;;;;;;10.42;100.00;100204.66;4769133;30;20137;-65
2024/02/07 00:17:01;;;;;;;10.35;4.15;;;;;;;10.43;100.00;100197.28;4771952;29;20055;-65
2024/02/07 00:19:50;;;;;;;10.95;3.45;;;;;;;10.45;100.00;100214.16;4770812;30;20058;-66
2024/02/07 00:22:40;;;;;;;13.10;3.90;;;;;;;10.45;100.00;100200.53;4774196;30;20429;-66
2024/02/07 00:25:27;;;;;;;10.10;4.28;;;;;;;10.44;100.00;100194.28;4788333;30;20421;-65
2024/02/07 00:28:16;;;;;;;9.70;3.55;;;;;;;10.46;100.00;100196.72;4789026;30;20501;-65
2024/02/07 00:31:05;;;;;;;10.05;4.05;;;;;;;10.42;100.00;100201.91;4788720;29;20055;-64
2024/02/07 00:33:54;;;;;;;12.43;4.32;;;;;;;10.43;100.00;100219.06;4779612;29;20055;-66
2024/02/07 00:36:42;;;;;;;14.35;4.32;;;;;;;10.43;100.00;100221.78;4756547;30;20055;-66
2024/02/07 00:39:30;;;;;;;11.65;3.80;;;;;;;10.38;100.00;100246.34;4770561;30;20110;-65
2024/02/07 00:42:18;;;;;;;9.85;2.90;;;;;;;10.30;100.00;100264.09;4770356;30;20052;-65
2024/02/07 00:45:07;;;;;;;4.35;1.50;;;;;;;9.99;100.00;100280.50;4770237;30;20101;-64
2024/02/07 00:47:55;;;;;;;3.50;1.80;;;;;;;9.69;100.00;100253.38;4770102;30;20051;-65
2024/02/07 00:50:43;;;;;;;1.65;1.15;;;;;;;9.38;100.00;100215.41;4769599;30;20044;-65
2024/02/07 00:53:31;;;;;;;2.47;1.20;;;;;;;9.12;100.00;100293.44;4769637;30;20051;-65
2024/02/07 00:56:20;;;;;;;2.88;1.30;;;;;;;8.80;100.00;100207.53;4752251;30;20052;-65
2024/02/07 00:59:08;;;;;;;2.55;1.48;;;;;;;8.99;100.00;100277.66;4753988;30;20098;-65
2024/02/07 01:01:56;;;;;;;0.90;0.82;;;;;;;8.86;100.00;100214.63;4751981;30;20056;-65
2024/02/07 01:04:44;;;;;;;5.53;1.63;;;;;;;8.60;100.00;100313.44;4757672;30;20087;-66
2024/02/07 01:07:32;;;;;;;5.03;1.90;;;;;;;8.30;100.00;100247.09;4753632;30;20051;-63
2024/02/07 01:10:20;;;;;;;3.42;1.60;;;;;;;8.27;100.00;100247.59;4753019;30;20059;-64
2024/02/07 01:13:08;;;;;;;4.22;1.77;;;;;;;8.27;100.00;100291.03;4763854;30;20498;-65
2024/02/07 01:15:56;;;;;;;4.85;1.88;;;;;;;8.50;100.00;100260.72;4770056;30;20083;-65
2024/02/07 01:18:44;;;;;;;4.78;1.77;;;;;;;7.81;100.00;100223.81;4770092;30;20142;-65
2024/02/07 01:21:32;;;;;;;3.70;1.80;;;;;;;7.57;100.00;100312.91;4769057;30;20083;-66
2024/02/07 01:24:20;;;;;;;3.45;1.77;;;;;;;7.68;100.00;100265.81;4769989;30;20442;-64
2024/02/07 01:27:10;;;;;;;4.20;1.77;;;;;;;7.74;100.00;100263.13;4752239;30;20115;-65
2024/02/07 01:29:58;;;;;;;3.78;1.77;;;;;;;7.59;100.00;100267.38;4752569;30;20414;-64
2024/02/07 01:32:46;;;;;;;5.53;1.70;;;;;;;7.61;100.00;100238.09;4744110;30;20053;-65
2024/02/07 01:35:34;;;;;;;4.07;1.50;;;;;;;7.61;100.00;100248.94;4744733;30;20175;-65
2024/02/07 01:38:23;;;;;;;5.32;2.13;;;;;;;7.68;100.00;100249.53;4751916;30;20140;-65
2024/02/07 01:41:11;;;;;;;4.75;1.75;;;;;;;7.57;100.00;100269.53;4752583;30;20137;-65
2024/02/07 01:43:59;;;;;;;5.43;2.15;;;;;;;7.48;100.00;100276.53;4754138;30;20490;-64
2024/02/07 01:46:47;;;;;;;4.97;1.95;;;;;;;7.41;100.00;100265.09;4769686;30;20059;-65
2024/02/07 01:49:35;;;;;;;4.93;1.77;;;;;;;7.24;100.00;100282.31;4771019;30;20189;-65
2024/02/07 01:52:24;;;;;;;4.18;2.00;;;;;;;7.24;100.00;100282.31;4781791;30;20569;-65
2024/02/07 01:55:12;;;;;;;7.45;2.03;;;;;;;7.33;100.00;100276.41;4752862;30;20056;-65
2024/02/07 01:58:00;;;;;;;6.90;1.90;;;;;;;7.21;100.00;100282.81;4752123;30;20052;-65
2024/02/07 02:00:48;;;;;;;9.13;2.40;;;;;;;7.12;100.00;100297.94;4739222;30;20077;-65
2024/02/07 02:03:37;;;;;;;7.50;2.40;;;;;;;6.99;100.00;100288.31;4746581;30;20057;-65
2024/02/07 02:06:25;;;;;;;7.40;2.03;;;;;;;6.92;100.00;100284.19;4760305;30;20080;-65
2024/02/07 02:09:13;;;;;;;8.85;2.63;;;;;;;6.82;100.00;100290.34;4752606;30;20052;-65
2024/02/07 02:12:02;;;;;;;13.30;2.50;;;;;;;6.69;100.00;100290.75;4751449;30;20062;-65
2024/02/07 02:14:50;;;;;;;8.20;2.47;;;;;;;6.85;100.00;100276.28;4752442;30;20064;-65
2024/02/07 02:17:38;;;;;;;10.68;2.80;;;;;;;6.95;100.00;100283.69;4751977;30;20051;-65
2024/02/07 02:20:28;;;;;;;6.82;2.22;;;;;;;6.93;100.00;100280.44;4751108;30;20052;-65
2024/02/07 02:23:54;;;;;;;8.40;2.63;;;;;;;6.74;100.00;100278.09;4752986;30;20055;-65
2024/02/07 02:27:33;;;;;;;8.77;2.53;;;;;;;6.88;100.00;100283.06;4754216;30;20059;-64
2024/02/07 02:30:33;;;;;;;7.78;2.40;;;;;;;6.98;100.00;100277.78;4761941;30;20138;-66
2024/02/07 02:33:23;;;;;;;11.43;3.10;;;;;;;6.89;100.00;100273.88;4768447;30;20475;-65
2024/02/07 02:36:11;;;;;;;8.30;2.38;;;;;;;7.02;100.00;100284.28;4768278;30;20135;-64
2024/02/07 02:38:59;;;;;;;9.02;2.70;;;;;;;7.01;100.00;100288.88;4751000;30;20084;-65
2024/02/07 02:41:47;;;;;;;6.80;2.15;;;;;;;7.07;100.00;100291.63;4750883;30;20056;-65
2024/02/07 02:44:35;;;;;;;7.30;2.60;;;;;;;6.93;100.00;100296.69;4752113;30;20152;-65
2024/02/07 02:47:23;;;;;;;7.80;2.58;;;;;;;6.83;100.00;100300.94;4768595;30;20490;-65
2024/02/07 02:50:11;;;;;;;5.97;2.03;;;;;;;6.82;100.00;100315.53;4771182;29;20059;-65
2024/02/07 02:53:00;;;;;;;8.88;2.53;;;;;;;6.92;100.00;100312.09;4770760;29;20082;-65
2024/02/07 02:55:49;;;;;;;8.00;2.90;;;;;;;7.01;100.00;100312.47;4772592;30;20052;-65
2024/02/07 02:58:37;;;;;;;7.72;2.58;;;;;;;6.85;100.00;100313.38;4750117;30;20141;-65
2024/02/07 03:01:32;;;;;;;9.57;2.92;;;;;;;7.00;100.00;100332.50;4755369;30;20091;-66
2024/02/07 03:04:21;;;;;;;7.72;2.50;;;;;;;6.88;100.00;100329.09;4742142;30;20060;-65
2024/02/07 03:07:36;;;;;;;6.97;2.40;;;;;;;6.67;100.00;100326.19;4755696;30;20063;-65
2024/02/07 03:10:23;;;;;;;6.22;2.42;;;;;;;6.53;100.00;100333.06;4772483;30;20055;-66
2024/02/07 03:13:15;;;;;;;8.27;2.38;;;;;;;6.60;100.00;100331.00;4773539;30;20131;-65
2024/02/07 03:16:06;;;;;;;6.88;2.38;;;;;;;6.51;100.00;100327.09;4772745;30;20059;-64
2024/02/07 03:18:58;;;;;;;6.18;2.13;;;;;;;6.58;100.00;100323.13;4781329;30;20048;-61
2024/02/07 03:21:48;;;;;;;7.28;2.58;;;;;;;6.67;100.00;100337.03;4779871;30;20052;-63
2024/02/07 03:24:36;;;;;;;8.35;2.65;;;;;;;6.56;100.00;100332.56;4760554;30;20048;-66
2024/02/07 03:27:25;;;;;;;7.60;2.63;;;;;;;6.57;100.00;100336.94;4773131;30;20060;-61
2024/02/07 03:30:20;;;;;;;6.65;2.17;;;;;;;6.43;100.00;100317.53;4776899;30;20095;-65
2024/02/07 03:33:08;;;;;;;7.93;2.17;;;;;;;6.53;100.00;100338.50;4778512;30;20056;-66
2024/02/07 03:35:57;;;;;;;6.95;2.15;;;;;;;6.58;100.00;100339.34;4759590;30;20090;-66
2024/02/07 03:38:45;;;;;;;9.65;2.95;;;;;;;6.46;100.00;100325.16;4771912;30;20108;-65
2024/02/07 03:41:34;;;;;;;8.70;2.67;;;;;;;6.42;100.00;100336.72;4771873;30;20140;-65
2024/02/07 03:44:23;;;;;;;7.60;2.75;;;;;;;6.55;100.00;100339.06;4772254;29;20307;-65
2024/02/07 03:47:11;;;;;;;9.52;2.80;;;;;;;6.43;100.00;100351.91;4771879;30;20094;-65
2024/02/07 03:49:59;;;;;;;7.72;2.35;;;;;;;6.18;100.00;100351.34;4771924;30;20059;-65
2024/02/07 03:52:48;;;;;;;6.75;2.35;;;;;;;6.08;100.00;100355.78;4757488;30;20055;-65
2024/02/07 03:55:37;;;;;;;9.18;2.38;;;;;;;5.94;100.00;100349.91;4755444;30;20056;-65
2024/02/07 03:58:25;;;;;;;7.78;2.40;;;;;;;6.01;100.00;100355.13;4756341;30;20129;-64
2024/02/07 04:01:17;;;;;;;7.20;2.40;;;;;;;6.05;100.00;100364.41;4770977;30;20058;-66
2024/02/07 04:04:08;;;;;;;8.32;2.53;;;;;;;6.08;100.00;100351.19;4771346;30;20106;-65
2024/02/07 04:06:58;;;;;;;7.72;2.38;;;;;;;6.15;100.00;100369.94;4772516;29;20055;-65
2024/02/07 04:09:46;;;;;;;4.88;1.88;;;;;;;6.00;100.00;100337.28;4771363;30;20071;-64
2024/02/07 05:17:33;;;;;;;7.30;2.50;;;;;;;6.11;100.00;100387.72;4769990;30;20427;-65
2024/02/07 05:20:21;;;;;;;9.95;2.90;;;;;;;6.16;100.00;100388.63;4770788;30;20056;-64
2024/02/07 05:23:10;;;;;;;9.40;2.90;;;;;;;6.28;100.00;100380.41;4769189;30;20126;-66
2024/02/07 05:26:01;;;;;;;8.55;3.25;;;;;;;6.37;100.00;100381.63;4768983;30;20417;-66
2024/02/07 05:28:50;;;;;;;8.27;3.20;;;;;;;6.45;100.00;100385.75;4769577;30;20110;-66
2024/02/07 05:31:38;;;;;;;7.55;2.67;;;;;;;6.49;100.00;100378.75;4770136;30;20063;-65
2024/02/07 05:34:26;;;;;;;8.07;2.35;;;;;;;6.50;100.00;100391.25;4770308;29;20137;-66
2024/02/07 05:37:14;;;;;;;7.30;2.47;;;;;;;6.53;100.00;100392.63;4769100;30;20056;-65
2024/02/07 05:40:03;;;;;;;7.30;2.35;;;;;;;6.54;100.00;100402.38;4758497;30;20510;-64
2024/02/07 05:42:51;;;;;;;7.85;2.60;;;;;;;6.54;100.00;100402.38;4753123;29;20123;-67
2024/02/07 05:45:39;;;;;;;7.68;2.47;;;;;;;6.56;100.00;100394.81;4753736;30;20052;-65
2024/02/07 05:48:27;;;;;;;5.60;2.10;;;;;;;6.59;100.00;100388.88;4769230;30;20525;-65
2024/02/07 05:51:22;;;;;;;7.82;2.40;;;;;;;6.58;100.00;100387.25;4769937;30;20591;-64
2024/02/07 05:54:10;;;;;;;5.88;2.15;;;;;;;6.55;100.00;100395.91;4768990;30;20517;-66
2024/02/07 05:56:58;;;;;;;8.65;2.50;;;;;;;6.54;100.00;100402.38;4785835;30;20052;-64
2024/02/07 05:59:46;;;;;;;5.30;2.05;;;;;;;6.54;100.00;100405.06;4787577;30;20055;-65
2024/02/07 06:02:34;;;;;;;9.57;2.83;;;;;;;6.52;100.00;100409.94;4787235;30;20513;-65
2024/02/07 06:05:22;;;;;;;8.30;2.40;;;;;;;6.49;100.00;100411.22;4785406;30;20058;-65
2024/02/07 06:08:10;;;;;;;10.48;2.80;;;;;;;6.45;100.00;100420.13;4769114;30;20418;-65
2024/02/07 06:10:58;;;;;;;9.85;2.38;;;;;;;6.42;100.00;100426.84;4752043;30;20063;-64
2024/02/07 06:13:48;;;;;;;7.18;2.58;;;;;;;6.39;100.00;100433.56;4751956;30;20071;-65
2024/02/07 06:16:36;;;;;;;10.43;2.85;;;;;;;6.38;100.00;100425.72;4749641;30;20592;-65
2024/02/07 06:19:24;;;;;;;4.93;2.38;;;;;;;6.39;100.00;100444.41;4751589;30;20052;-66
2024/02/07 06:22:14;;;;;;;7.10;2.30;;;;;;;6.37;100.00;100443.00;4751604;30;20137;-65
2024/02/07 06:25:06;;;;;;;7.03;2.05;;;;;;;6.37;100.00;100451.97;4753228;30;20058;-66
2024/02/07 06:27:54;;;;;;;10.50;2.67;;;;;;;6.36;100.00;100438.69;4769276;30;20088;-65
2024/02/07 06:30:43;;;;;;;5.93;2.13;;;;;;;6.31;100.00;100441.31;4773778;30;20067;-65
2024/02/07 06:33:31;;;;;;;7.25;2.53;;;;;;;6.28;100.00;100442.63;4773588;30;20059;-66
2024/02/07 06:36:19;;;;;;;7.80;2.80;;;;;;;6.30;100.00;100440.50;4773055;30;20066;-66
2024/02/07 06:39:07;;;;;;;6.65;2.42;;;;;;;6.33;100.00;100450.81;4773413;30;20099;-65
2024/02/07 06:41:55;;;;;;;7.20;2.65;;;;;;;6.32;100.00;100449.16;4771648;30;20055;-65
2024/02/07 06:44:43;;;;;;;8.88;2.65;;;;;;;6.33;100.00;100450.81;4771288;30;20056;-65
2024/02/07 06:47:31;;;;;;;7.95;2.60;;;;;;;6.33;100.00;100452.72;4772975;30;20055;-64
2024/02/07 06:50:22;;;;;;;10.95;2.75;;;;;;;6.33;100.00;100448.13;4772594;30;20529;-63
2024/02/07 06:53:12;;;;;;;8.93;2.95;;;;;;;6.35;100.00;100445.97;4776463;30;20067;-62
2024/02/07 06:56:14;;;;;;;11.73;3.25;;;;;;;6.38;100.00;100447.38;4773082;30;20417;-66
2024/02/07 06:59:03;;;;;;;9.68;3.05;;;;;;;6.33;100.00;100450.81;4759164;30;20188;-64
2024/02/07 07:01:51;;;;;;;9.25;2.75;;;;;;;6.33;100.00;100439.19;4773116;30;20055;-65
2024/02/07 07:04:41;;;;;;;12.45;3.03;;;;;;;6.33;100.00;100450.81;4760335;30;20052;-65
2024/02/07 07:07:29;;;;;;;11.75;3.00;;;;;;;6.31;100.00;100468.38;4784918;30;20058;-65
2024/02/07 07:10:17;;;;;;;9.10;2.72;;;;;;;6.30;100.00;100462.16;4787830;30;20051;-65
2024/02/07 07:13:05;;;;;;;9.52;2.78;;;;;;;6.28;100.00;100461.56;4771942;30;20422;-65
2024/02/07 07:15:53;;;;;;;10.40;3.30;;;;;;;6.28;100.00;100464.28;4772001;30;20097;-65
2024/02/07 07:18:41;;;;;;;9.70;2.80;;;;;;;6.31;100.00;100468.38;4754319;30;20052;-63
2024/02/07 07:21:30;;;;;;;12.00;3.55;;;;;;;6.35;100.00;100474.91;4755680;30;20564;-65
2024/02/07 07:24:18;;;;;;;10.02;3.30;;;;;;;6.37;100.00;100470.91;4755111;30;20056;-65
2024/02/07 07:27:06;;;;;;;9.75;2.88;;;;;;;6.38;100.00;100477.13;4755616;30;20387;-65
2024/02/07 07:29:54;;;;;;;8.55;2.70;;;;;;;6.34;100.00;100474.09;4756235;30;20067;-65
2024/02/07 07:32:43;;;;;;;12.20;4.20;;;;;;;6.34;100.00;100484.09;4124159;30;10002875;-65
2024/02/07 07:35:31;;;;;;;11.60;3.85;;;;;;;6.33;100.00;100480.59;4779707;30;20624;-66
2024/02/07 07:38:19;;;;;;;17.88;5.00;;;;;;;6.36;100.00;100498.22;4752314;30;20402;-66
2024/02/07 07:41:07;;;;;;;9.57;2.92;;;;;;;6.35;100.00;100508.22;4771133;30;20150;-63
2024/02/07 07:43:57;;;;;;;10.20;3.15;;;;;;;6.32;100.00;100508.69;4762044;30;20118;-63
2024/02/07 07:46:45;;;;;;;9.73;3.10;;;;;;;6.30;100.00;100510.84;4758989;30;20056;-66
2024/02/07 07:49:33;;;;;;;11.48;3.08;;;;;;;6.31;100.00;100507.06;4758076;30;20047;-66
2024/02/07 07:52:21;;;;;;;10.30;3.60;;;;;;;6.31;100.00;100501.66;4769178;29;20056;-66
2024/02/07 07:55:09;;;;;;;12.52;3.95;;;;;;;6.34;100.00;100494.94;4769022;30;20139;-66
2024/02/07 07:57:57;;;;;;;12.50;3.40;;;;;;;6.37;100.00;100506.09;4774903;30;20059;-65
2024/02/07 08:00:45;;;;;;;10.45;3.05;;;;;;;6.39;100.00;100524.75;4768150;30;20417;-66
2024/02/07 08:03:38;;;;;;;10.23;3.17;;;;;;;6.36;100.00;100520.66;4768041;30;20540;-64
2024/02/07 08:06:26;;;;;;;11.15;3.30;;;;;;;6.33;100.00;100515.75;4754375;30;20572;-64
2024/02/07 08:09:15;;;;;;;17.33;3.63;;;;;;;6.33;100.00;100515.75;4767985;30;20108;-65
2024/02/07 08:12:04;;;;;;;14.18;3.33;;;;;;;6.38;100.00;100517.72;4768143;30;20070;-64
2024/02/07 08:14:52;;;;;;;15.82;4.30;;;;;;;6.40;100.00;100511.00;4756147;30;20062;-65
2024/02/07 08:17:40;;;;;;;19.95;3.78;;;;;;;6.38;100.00;100518.53;4768501;30;20399;-65
2024/02/07 08:20:27;;;;;;;16.45;3.88;;;;;;;6.35;100.00;100532.56;4769350;30;20059;-65
2024/02/07 08:23:15;;;;;;;15.80;3.80;;;;;;;6.35;100.00;100529.88;4770319;30;20051;-64
2024/02/07 08:26:03;;;;;;;13.52;3.92;;;;;;;6.33;100.00;100537.41;4768902;30;20050;-64
2024/02/07 08:28:51;;;;;;;12.40;3.97;;;;;;;6.35;100.00;100529.88;4771227;30;20498;-65
2024/02/07 08:31:40;;;;;;;21.40;3.85;;;;;;;6.37;100.00;100524.19;4771543;30;20146;-64
2024/02/07 08:34:28;;;;;;;12.77;3.50;;;;;;;6.39;100.00;100525.56;4770257;30;20138;-65
2024/02/07 08:37:16;;;;;;;11.18;3.40;;;;;;;6.43;100.00;100527.81;4771949;30;20063;-65
2024/02/07 08:40:09;;;;;;;13.30;3.70;;;;;;;6.45;100.00;100522.97;4771146;30;20058;-65
2024/02/07 08:42:57;;;;;;;11.82;3.80;;;;;;;6.45;100.00;100533.78;4768874;30;20051;-65
2024/02/07 08:45:45;;;;;;;9.27;3.20;;;;;;;6.44;100.00;100534.84;4768998;29;20062;-65
2024/02/07 08:48:33;;;;;;;11.65;3.47;;;;;;;6.45;100.00;100534.59;4769970;30;20071;-64
2024/02/07 08:51:22;;;;;;;15.98;3.72;;;;;;;6.43;100.00;100530.50;4770533;30;20399;-65
2024/02/07 08:54:10;;;;;;;9.48;3.17;;;;;;;6.40;100.00;100527.22;4770675;30;20075;-64
2024/02/07 08:56:57;;;;;;;11.15;3.33;;;;;;;6.30;100.00;100543.31;4771481;30;20055;-63
2024/02/07 08:59:46;;;;;;;9.82;3.20;;;;;;;6.32;100.00;100549.28;4770685;30;20506;-65
2024/02/07 09:02:34;;;;;;;14.48;3.50;;;;;;;6.35;100.00;100542.53;4770460;30;20051;-64
2024/02/07 09:05:22;;;;;;;16.95;3.72;;;;;;;6.37;100.00;100559.38;4770729;30;20166;-67
2024/02/07 09:08:10;;;;;;;15.32;3.70;;;;;;;6.36;100.00;100557.72;4759315;30;20126;-65
2024/02/07 09:10:58;;;;;;;13.15;3.83;;;;;;;6.34;100.00;100563.38;4767381;30;20128;-68
2024/02/07 09:13:46;;;;;;;12.15;3.55;;;;;;;6.33;100.00;100563.66;4768539;30;20100;-66
2024/02/07 09:16:34;;;;;;;11.10;3.33;;;;;;;6.32;100.00;100562.81;4767659;30;20513;-66
2024/02/07 09:19:22;;;;;;;12.40;3.20;;;;;;;6.35;100.00;100556.91;4770450;30;20055;-66
2024/02/07 09:22:10;;;;;;;16.42;4.20;;;;;;;6.37;100.00;100546.69;4769779;29;20043;-65
2024/02/07 09:24:58;;;;;;;17.63;3.95;;;;;;;6.37;100.00;100549.38;4768357;30;20122;-65
2024/02/07 09:27:46;;;;;;;12.27;3.72;;;;;;;6.36;100.00;100550.44;4770160;30;20063;-64
2024/02/07 09:30:34;;;;;;;19.17;4.05;;;;;;;6.35;100.00;100548.81;4770497;30;20489;-64
2024/02/07 09:33:22;;;;;;;19.50;4.65;;;;;;;6.35;100.00;100556.91;4768861;29;20055;-65
2024/02/07 09:36:10;;;;;;;11.18;3.50;;;;;;;6.35;100.00;100577.72;4770541;30;20136;-64
2024/02/07 09:38:58;;;;;;;12.27;4.05;;;;;;;6.35;100.00;100581.28;4770656;30;20055;-67
2024/02/07 09:41:46;;;;;;;10.48;3.63;;;;;;;6.35;100.00;100589.41;4771381;30;20047;-65
2024/02/07 09:44:36;;;;;;;12.23;3.72;;;;;;;6.35;100.00;100585.84;4769677;29;20058;-65
2024/02/07 09:47:25;;;;;;;10.23;3.95;;;;;;;6.32;100.00;100587.16;4770643;29;20060;-64
2024/02/07 09:50:13;;;;;;;12.35;3.80;;;;;;;6.30;100.00;100592.03;4768548;30;20561;-65
2024/02/07 09:53:01;;;;;;;10.75;3.95;;;;;;;6.29;100.00;100584.94;4758795;30;20114;-65
2024/02/07 09:55:53;;;;;;;9.93;3.72;;;;;;;6.33;100.00;100591.53;4769681;30;20055;-64
2024/02/07 09:58:44;;;;;;;11.43;3.65;;;;;;;6.41;100.00;100598.41;4768719;30;20098;-63
2024/02/07 10:01:33;;;;;;;9.50;3.58;;;;;;;6.46;100.00;100590.38;4765023;30;20050;-64
2024/02/07 10:04:31;;;;;;;11.68;4.03;;;;;;;6.54;100.00;100572.88;4767092;30;20051;-63
2024/02/07 10:07:19;;;;;;;14.27;4.25;;;;;;;6.60;100.00;100558.38;4765975;30;20067;-64
2024/02/07 10:10:09;;;;;;;12.05;3.85;;;;;;;6.60;100.00;100572.72;4754063;30;20059;-64
2024/02/07 10:12:57;;;;;;;13.43;3.80;;;;;;;6.59;100.00;100575.66;4764400;30;20047;-65
2024/02/07 10:15:45;;;;;;;12.70;3.95;;;;;;;6.58;100.00;100565.91;4769927;30;20576;-65
2024/02/07 10:18:33;;;;;;;12.25;3.60;;;;;;;6.58;100.00;100557.78;4768980;29;20143;-65
2024/02/07 10:21:33;;;;;;;12.43;4.32;;;;;;;6.63;100.00;100574.13;4756240;30;20052;-64
2024/02/07 10:24:21;;;;;;;10.07;3.90;;;;;;;6.63;100.00;100570.59;4750012;30;20131;-65
2024/02/07 10:27:09;;;;;;;10.45;3.55;;;;;;;6.65;100.00;100544.09;4768040;30;20064;-65
2024/02/07 10:30:03;;;;;;;13.10;4.20;;;;;;;6.70;100.00;100549.56;4763840;30;20138;-65
2024/02/07 10:32:52;;;;;;;15.50;4.18;;;;;;;6.72;100.00;100552.84;4768404;30;20502;-65
2024/02/07 10:35:41;;;;;;;13.05;4.00;;;;;;;6.69;100.00;100573.13;4768938;30;20213;-65
2024/02/07 10:38:32;;;;;;;20.75;4.80;;;;;;;6.67;100.00;100572.56;4769812;30;20587;-65
2024/02/07 10:41:20;;;;;;;19.90;4.63;;;;;;;6.66;100.00;100568.19;4767564;30;20533;-65
2024/02/07 10:44:09;;;;;;;13.15;4.50;;;;;;;6.63;100.00;100549.75;4763868;30;20055;-65
2024/02/07 10:46:59;;;;;;;15.00;4.30;;;;;;;6.67;100.00;100550.91;4767822;30;20048;-64
2024/02/07 10:49:47;;;;;;;15.02;5.13;;;;;;;6.62;100.00;100556.25;4756431;30;20056;-65
2024/02/07 10:52:37;;;;;;;17.23;5.07;;;;;;;6.57;100.00;100558.88;4768636;30;20047;-66
2024/02/07 10:55:29;;;;;;;17.02;5.10;;;;;;;6.52;100.00;100567.75;4756851;30;20048;-66
2024/02/07 10:58:22;;;;;;;12.68;3.88;;;;;;;6.56;100.00;100547.19;4755864;30;20051;-66
2024/02/07 11:01:10;;;;;;;13.57;4.40;;;;;;;6.58;100.00;100542.38;4768111;30;20078;-65
2024/02/07 11:03:59;;;;;;;21.05;5.18;;;;;;;6.61;100.00;100533.78;4770151;30;20506;-67
2024/02/07 11:06:48;;;;;;;16.85;4.80;;;;;;;6.58;100.00;100536.97;4767305;30;20048;-65
2024/02/07 11:09:37;;;;;;;13.52;5.28;;;;;;;6.59;100.00;100545.88;4751108;30;20063;-65
2024/02/07 11:12:25;;;;;;;14.07;4.13;;;;;;;6.61;100.00;100549.16;4763047;30;20052;-65
2024/02/07 11:15:13;;;;;;;18.92;4.38;;;;;;;6.64;100.00;100554.09;4771196;30;20056;-68
2024/02/07 11:18:01;;;;;;;16.52;4.72;;;;;;;6.67;100.00;100559.03;4786439;30;20420;-65
2024/02/07 11:20:50;;;;;;;13.68;4.28;;;;;;;6.72;100.00;100564.50;4759252;30;20051;-66
2024/02/07 11:23:39;;;;;;;16.60;4.10;;;;;;;6.72;100.00;100561.81;4771837;30;20148;-66
2024/02/07 11:26:27;;;;;;;16.92;4.57;;;;;;;6.69;100.00;100551.47;4771410;30;20043;-65
2024/02/07 11:29:15;;;;;;;16.33;4.50;;;;;;;6.69;100.00;100556.88;4754072;30;20053;-66
2024/02/07 11:32:04;;;;;;;17.70;4.80;;;;;;;6.72;100.00;100550.97;4743034;30;20055;-65
2024/02/07 11:34:53;;;;;;;19.30;5.45;;;;;;;6.74;100.00;100548.84;4755717;30;20047;-66
2024/02/07 11:37:43;;;;;;;16.63;4.88;;;;;;;6.77;100.00;100542.09;4786801;30;20066;-65
2024/02/07 11:40:39;;;;;;;20.70;4.57;;;;;;;6.86;100.00;100534.38;4796601;30;20055;-62
2024/02/07 11:43:27;;;;;;;14.50;4.05;;;;;;;6.80;100.00;100531.56;4797872;30;20059;-66
2024/02/07 11:46:17;;;;;;;17.08;4.35;;;;;;;6.82;100.00;100542.16;4787850;30;20067;-64
2024/02/07 11:49:05;;;;;;;14.68;4.50;;;;;;;6.86;100.00;100542.50;4787252;29;20048;-62
2024/02/07 11:51:59;;;;;;;17.45;4.18;;;;;;;6.89;100.00;100533.88;4796275;30;20521;-66
2024/02/07 11:54:49;;;;;;;14.77;4.20;;;;;;;6.90;100.00;100538.19;4799355;30;20055;-63
2024/02/07 11:57:51;;;;;;;14.90;4.60;;;;;;;6.83;100.00;100547.34;4744007;30;20524;-65
2024/02/07 12:00:41;;;;;;;17.98;4.40;;;;;;;6.80;100.00;100547.81;4773624;30;20056;-66
2024/02/07 12:03:29;;;;;;;17.88;4.90;;;;;;;6.73;100.00;100551.78;4755189;30;20413;-65
2024/02/07 12:06:18;;;;;;;15.45;4.40;;;;;;;6.75;100.00;100542.34;4762128;30;20511;-66
2024/02/07 12:09:06;;;;;;;17.13;4.88;;;;;;;6.61;100.00;100543.75;4771239;30;20059;-66
2024/02/07 12:11:54;;;;;;;13.65;4.30;;;;;;;6.54;100.00;100537.69;4770250;30;20056;-67
2024/02/07 12:14:42;;;;;;;17.70;4.88;;;;;;;6.50;100.00;100542.00;4771175;30;20178;-67
2024/02/07 12:17:34;;;;;;;18.58;4.80;;;;;;;6.53;100.00;100546.91;4768013;30;20052;-66
2024/02/07 12:20:31;;;;;;;17.00;4.80;;;;;;;6.56;100.00;100540.97;4753809;30;20154;-66
2024/02/07 12:23:19;;;;;;;19.25;4.47;;;;;;;6.64;100.00;100537.03;4753794;30;20056;-66
2024/02/07 12:26:07;;;;;;;19.90;5.32;;;;;;;6.65;100.00;100535.97;4757792;30;20055;-65
2024/02/07 12:28:56;;;;;;;19.05;4.65;;;;;;;6.66;100.00;100538.41;4752770;30;20052;-65
2024/02/07 12:31:45;;;;;;;25.85;5.00;;;;;;;6.74;100.00;100540.72;4761300;30;20063;-65
2024/02/07 12:34:33;;;;;;;24.40;4.93;;;;;;;6.78;100.00;100544.56;4758670;30;20534;-64
2024/02/07 12:37:21;;;;;;;15.80;5.18;;;;;;;6.86;100.00;100539.78;4771139;30;20047;-65
2024/02/07 12:40:12;;;;;;;17.25;4.50;;;;;;;6.91;100.00;100531.72;4770308;30;20070;-66
2024/02/07 12:43:00;;;;;;;24.63;5.70;;;;;;;6.93;100.00;100524.19;4770283;30;20112;-65
2024/02/07 12:45:52;;;;;;;17.90;4.75;;;;;;;6.90;100.00;100519.25;4770814;30;20425;-65
2024/02/07 12:48:40;;;;;;;12.68;4.20;;;;;;;6.90;100.00;100511.94;4768629;30;20067;-66
2024/02/07 12:51:29;;;;;;;17.35;4.70;;;;;;;6.93;100.00;100511.44;4767999;30;20055;-65
2024/02/07 12:54:17;;;;;;;19.27;5.00;;;;;;;6.92;100.00;100508.97;4769567;30;20056;-65
2024/02/07 12:57:05;;;;;;;15.68;4.38;;;;;;;6.90;100.00;100503.00;4770662;30;20052;-64
2024/02/07 12:59:56;;;;;;;21.02;4.80;;;;;;;6.90;100.00;100505.69;4756295;30;20062;-65
2024/02/07 13:02:48;;;;;;;20.02;5.32;;;;;;;6.86;100.00;100504.59;4754662;30;20106;-64
2024/02/07 13:05:36;;;;;;;20.00;5.18;;;;;;;6.82;100.00;100507.78;4753674;30;20067;-65
2024/02/07 13:08:24;;;;;;;17.40;4.65;;;;;;;6.83;100.00;100504.00;4763563;30;20076;-66
2024/02/07 13:11:12;;;;;;;20.25;5.45;;;;;;;6.89;100.00;100504.06;4767111;30;20059;-64
2024/02/07 13:14:00;;;;;;;18.88;5.35;;;;;;;6.87;100.00;100504.31;4768252;30;20062;-65
2024/02/07 13:16:51;;;;;;;21.65;5.35;;;;;;;6.77;100.00;100493.38;4769487;30;20146;-66
2024/02/07 13:19:39;;;;;;;24.17;5.35;;;;;;;6.78;100.00;100493.13;4768018;30;20055;-64
2024/02/07 13:22:30;;;;;;;19.58;5.47;;;;;;;6.79;100.00;100486.63;4770044;30;20081;-64
2024/02/07 13:25:21;;;;;;;21.83;5.03;;;;;;;6.81;100.00;100491.81;4764819;30;20047;-66
2024/02/07 13:28:09;;;;;;;15.82;4.28;;;;;;;6.79;100.00;100492.03;4751874;30;20052;-66
2024/02/07 13:30:58;;;;;;;21.40;4.97;;;;;;;6.76;100.00;100495.25;4756413;30;20425;-65
2024/02/07 13:33:47;;;;;;;17.00;4.72;;;;;;;6.77;100.00;100498.78;4777508;30;20063;-65
2024/02/07 13:36:35;;;;;;;19.45;5.20;;;;;;;6.78;100.00;100500.41;4787015;29;20074;-65
2024/02/07 13:39:23;;;;;;;19.92;5.13;;;;;;;6.77;100.00;100504.19;4772387;30;20051;-66
2024/02/07 13:42:11;;;;;;;14.98;4.75;;;;;;;6.79;100.00;100504.75;4761462;30;20129;-65
2024/02/07 13:44:59;;;;;;;22.73;5.65;;;;;;;6.79;100.00;100493.94;4769097;30;20135;-65
2024/02/07 13:47:48;;;;;;;20.33;5.32;;;;;;;6.79;100.00;100496.63;4762094;30;20447;-67
2024/02/07 13:50:36;;;;;;;20.70;4.63;;;;;;;6.77;100.00;100488.75;4754985;30;20528;-65
2024/02/07 13:53:24;;;;;;;21.83;5.13;;;;;;;6.72;100.00;100499.53;4756813;30;20048;-66
2024/02/07 13:56:12;;;;;;;20.13;4.68;;;;;;;6.68;100.00;100500.28;4769540;30;20417;-66
2024/02/07 13:59:00;;;;;;;23.38;4.68;;;;;;;6.68;100.00;100500.28;4770146;30;20066;-67
2024/02/07 14:01:49;;;;;;;18.00;4.72;;;;;;;6.67;100.00;100496.75;4770220;30;20051;-66
2024/02/07 14:04:37;;;;;;;20.50;5.00;;;;;;;6.67;100.00;100488.63;4768741;30;20089;-66